Tropical Cyclones
[Index]
Main Index Home Page Stock Weather Photos Extreme Storms Discussion Storm News and Storm Chasing Reports Tropical Cyclones / Hurricanes / Typhoons Weather Data and Links Wild Fires / Bushfires Weather Observation Techniques Weather Picture Catalogue Tornado Pictures and Reports Stock Video Footage and DVDs for sale
Season 1986-1987 Tropical Cyclone CONNIE Track Map
Season 1986-1987 Summaries: [BoM-AU] [JTWC-AU] [JTWC-SIO] [JTWC-SPAC] [JTWC-SH]
<<- Previous TC | BoM 1986-1987 Season | Next TC ->>

click for intensity scale information  Lat/long Grid: Show Hide

 Date Labels: Show Hide

Bureau of Meteorology Tropical Cyclone Data

Name: CONNIE
Number: 695 / 198687_01

15 Jan 1987 00:00 UTC to 23 Jan 1987 06:00 UTC

    date/time    lat    long    hPa   cat  kts
1987-01-15 00   15.8   124.8   1002         23          
1987-01-15 03   15.8   124.8   1001         25          
1987-01-15 06   16.0   124.7    999         29          
1987-01-15 09   16.3   124.6    999         29          
1987-01-15 12   16.5   124.5    999         29          
1987-01-15 15   16.6   124.4   1000         27          
1987-01-15 18   16.7   124.2   1000         27          
1987-01-15 21   16.8   124.1    999         29          
1987-01-16 00   16.9   124.0   1002         23          
1987-01-16 03   17.0   123.9   1001         25          
1987-01-16 06   17.2   123.7    999         29          
1987-01-16 09   17.3   123.0    998         29          
1987-01-16 12   17.2   122.9    998         29          
1987-01-16 15   17.2   122.8    998         29          
1987-01-16 18   16.7   122.6    997         31          
1987-01-16 21   16.5   122.3    997         31          
1987-01-17 00   16.5   122.1    997         31          
1987-01-17 03   16.6   122.0    996         33          
1987-01-17 06   16.8   121.9    995    1    35          
1987-01-17 09   16.9   121.9    995    1    35          
1987-01-17 12   17.1   121.9    994    1    35          
1987-01-17 15   17.2   121.7    994    1    35          
1987-01-17 18   17.7   121.3    993    1    37          
1987-01-17 21   17.7   121.4    991    1    41          
1987-01-18 00   17.8   121.0    988    1    45          
1987-01-18 03   17.9   120.5    986    1    47          
1987-01-18 06   18.1   119.9    983    2    51          
1987-01-18 09   18.2   119.4    980    2    54          
1987-01-18 12   18.5   119.2    976    2    58          
1987-01-18 15   18.7   119.0    973    2    62          
1987-01-18 18   19.1   118.7    970    3    66          
1987-01-18 21   19.4   118.7    966    3    70          
1987-01-19 00   19.5   118.6    962    3    74          
1987-01-19 03   19.8   118.6    955    4    80          
1987-01-19 06   19.9   118.5    950    4    84          
1987-01-19 09   20.3   118.5    950    4    84          
1987-01-19 12   20.5   118.4    955    4    80          
1987-01-19 15   20.9   118.0    960    3    76          
1987-01-19 18   21.2   117.5    965    3    70          
1987-01-19 21   21.7   118.0    970    3    66          
1987-01-20 00   22.0   118.4    974    2    60          
1987-01-20 03   22.3   118.4    977    2    56          
1987-01-20 06   22.6   118.3    980    2    54          
1987-01-20 09   23.0   118.2    980    2    54          
1987-01-20 12   23.5   118.2    980    2    54          
1987-01-20 15   23.9   118.4    980    2    54          
1987-01-20 18   24.5   118.6    980    2    54          
1987-01-20 21   25.1   118.8    980    2    54          
1987-01-21 00   25.9   118.9    982    2    51          
1987-01-21 03   26.3   119.5    985    2    47          
1987-01-21 06   27.0   119.6    990    1    41          
1987-01-21 09   27.2   119.7    990    1    41          
1987-01-21 12   27.5   120.0    990    1    41          
1987-01-21 15   28.0   120.5    992    1    39          
1987-01-21 18   28.4   121.5    993    1    37          
1987-01-21 21   29.1   122.1    994    1    35          
1987-01-22 00   29.3   122.7    994    1    35          
1987-01-22 03   29.5   123.3    993    1    37          
1987-01-22 06   29.9   123.9    992    1    39          
1987-01-22 09   30.4   124.6    994    1    35          
1987-01-22 12   30.7   125.2    994    1    35          
1987-01-22 15   31.7   125.8    995    1    35          
1987-01-22 18   32.1   126.2    996         33          
1987-01-22 21   32.5   126.5    996         33          
1987-01-23 00   34.0   127.0    997         31          
1987-01-23 03   35.0   127.1    998         29          
1987-01-23 06   36.9   127.1    996         33          
Winds are 10-min average.

Tropical cyclone tracks developed by Michael Bath using data from the Bureau of Meteorology and Google Maps.


[Australian Severe Weather index] [Copyright Notice] [Email Contacts] [Search This Site] [Privacy Policy]
Document: tropical_cyclone_connie.htm Updated: 30 May 2013